Time;durP1;ratioP1;P1;durP2;ratioP2;P2;SDS_P1;SDS_P2;PMS_P1;PMS_P2;Temp;Humidity;BMP_temperature;BMP_pressure;BME280_temperature;BME280_humidity;BME280_pressure;Samples;Min_cycle;Max_cycle;Signal;HPM_P1;HPM_P2
2023/08/08 00:01:42;;;;;;;;;;;;;;;20.44;39.77;97176.38;4216617;28;5756;-61
2023/08/08 00:03:45;;;;;;;;;;;;;;;20.41;39.83;97174.16;4216808;28;5612;-62
2023/08/08 00:05:47;;;;;;;;;;;;;;;20.36;39.91;97169.53;4217033;28;5787;-62
2023/08/08 00:07:50;;;;;;;;;;;;;;;20.41;40.01;97166.13;4215812;28;5601;-61
2023/08/08 00:09:54;;;;;;;;;;;;;;;20.46;39.92;97164.34;4209402;28;5650;-61
2023/08/08 00:11:58;;;;;;;;;;;;;;;20.51;39.92;97158.25;4216382;28;5613;-61
2023/08/08 00:14:01;;;;;;;;;;;;;;;20.55;39.91;97145.94;4216502;28;5626;-61
2023/08/08 00:16:04;;;;;;;;;;;;;;;20.60;39.77;97154.84;4215597;28;5636;-61
2023/08/08 00:18:08;;;;;;;;;;;;;;;20.63;39.75;97149.00;4220524;28;5684;-61
2023/08/08 00:20:12;;;;;;;;;;;;;;;20.65;39.56;97143.38;4220495;28;5613;-61
2023/08/08 00:22:15;;;;;;;;;;;;;;;20.67;39.83;97140.44;4220422;28;6302;-61
2023/08/08 00:24:17;;;;;;;;;;;;;;;20.69;39.94;97135.63;4220230;28;7312;-61
2023/08/08 00:26:21;;;;;;;;;;;;;;;20.70;39.78;97138.06;4214716;28;5605;-61
2023/08/08 00:28:24;;;;;;;;;;;;;;;20.72;39.86;97144.00;4228413;28;5724;-61
2023/08/08 00:30:27;;;;;;;;;;;;;;;20.73;39.68;97134.91;4220325;28;5627;-61
2023/08/08 00:32:30;;;;;;;;;;;;;;;20.73;39.90;97132.22;4220015;28;5679;-61
2023/08/08 00:34:33;;;;;;;;;;;;;;;20.73;39.59;97136.78;4219919;28;5612;-60
2023/08/08 00:36:36;;;;;;;;;;;;;;;20.70;39.59;97138.06;4219053;28;5620;-61
2023/08/08 00:38:38;;;;;;;;;;;;;;;20.69;39.92;97136.44;4219854;28;5726;-61
2023/08/08 00:40:41;;;;;;;;;;;;;;;20.70;39.98;97138.06;4220006;28;5108;-61
2023/08/08 00:42:45;;;;;;;;;;;;;;;20.72;39.97;97141.31;4219613;28;5624;-60
2023/08/08 00:44:49;;;;;;;;;;;;;;;20.73;39.93;97139.47;4219705;28;5605;-61
2023/08/08 00:46:52;;;;;;;;;;;;;;;20.74;39.81;97133.84;4220077;28;5613;-60
2023/08/08 00:48:56;;;;;;;;;;;;;;;20.74;39.92;97128.47;4219488;28;5625;-60
2023/08/08 00:50:59;;;;;;;;;;;;;;;20.75;39.93;97130.09;4219987;28;5620;-61
2023/08/08 00:53:03;;;;;;;;;;;;;;;20.76;39.99;97131.72;4219890;28;5625;-61
2023/08/08 00:55:08;;;;;;;;;;;;;;;20.76;39.92;97126.34;4219507;28;5622;-62
2023/08/08 00:57:11;;;;;;;;;;;;;;;20.76;39.87;97126.34;4219933;28;5613;-61
2023/08/08 00:59:19;;;;;;;;;;;;;;;20.76;39.95;97120.16;4219653;28;5621;-61
2023/08/08 01:01:22;;;;;;;;;;;;;;;20.75;40.12;97121.22;4219890;28;6318;-61
2023/08/08 01:03:25;;;;;;;;;;;;;;;20.75;39.71;97118.53;4218548;28;5637;-60
2023/08/08 01:05:42;;;;;;;;;;;;;;;20.75;40.12;97113.16;4219416;28;5613;-61
2023/08/08 01:07:52;;;;;;;;;;;;;;;20.75;39.88;97107.78;4212562;28;5625;-61
2023/08/08 01:10:01;;;;;;;;;;;;;;;20.76;40.10;97107.53;4200205;28;5640;-61
2023/08/08 01:12:06;;;;;;;;;;;;;;;20.76;40.33;97107.53;4218790;28;5609;-61
2023/08/08 01:14:11;;;;;;;;;;;;;;;20.76;40.27;97098.66;4219300;28;6288;-61
2023/08/08 01:16:16;;;;;;;;;;;;;;;20.77;40.30;97101.09;4214556;28;5690;-61
2023/08/08 01:18:20;;;;;;;;;;;;;;;20.77;40.30;97095.72;4199990;28;5632;-60
2023/08/08 01:20:22;;;;;;;;;;;;;;;20.77;40.17;97101.09;4216691;28;5624;-61
2023/08/08 01:22:33;;;;;;;;;;;;;;;20.78;40.32;97097.34;4210327;28;5729;-61
2023/08/08 01:24:37;;;;;;;;;;;;;;;20.78;40.17;97094.66;4218734;28;5609;-61
2023/08/08 01:26:41;;;;;;;;;;;;;;;20.79;40.41;97088.22;4218383;28;5685;-61
2023/08/08 01:28:44;;;;;;;;;;;;;;;20.78;40.12;97091.97;4211542;28;5620;-61
2023/08/08 01:30:47;;;;;;;;;;;;;;;20.77;40.16;97084.97;4218251;28;5620;-61
2023/08/08 01:32:50;;;;;;;;;;;;;;;20.77;40.40;97079.59;4212660;28;5681;-61
2023/08/08 01:34:54;;;;;;;;;;;;;;;20.78;40.31;97089.28;4218942;28;5613;-61
2023/08/08 01:37:00;;;;;;;;;;;;;;;20.77;40.55;97090.34;4218981;28;5756;-61
2023/08/08 01:39:05;;;;;;;;;;;;;;;20.78;40.59;97097.34;4218890;28;5647;-61
2023/08/08 01:41:09;;;;;;;;;;;;;;;20.78;40.48;97081.22;4218284;28;5612;-61
2023/08/08 01:43:13;;;;;;;;;;;;;;;20.78;40.57;97081.22;4218683;28;5943;-61
2023/08/08 01:45:17;;;;;;;;;;;;;;;20.78;40.74;97073.16;4219036;28;5729;-61
2023/08/08 01:47:19;;;;;;;;;;;;;;;20.78;40.77;97075.84;4218857;28;5620;-61
2023/08/08 01:49:22;;;;;;;;;;;;;;;20.77;40.63;97082.28;4218813;28;5608;-63
2023/08/08 01:51:26;;;;;;;;;;;;;;;20.77;40.46;97076.09;4219016;28;5613;-61
2023/08/08 01:53:28;;;;;;;;;;;;;;;20.76;40.48;97077.97;4218852;28;5605;-61
2023/08/08 01:55:32;;;;;;;;;;;;;;;20.75;40.72;97087.09;4218742;28;5609;-61
2023/08/08 01:57:36;;;;;;;;;;;;;;;20.75;40.56;97087.09;4218882;28;5696;-61
2023/08/08 01:59:39;;;;;;;;;;;;;;;20.74;40.74;97090.84;4202471;28;5938;-61
2023/08/08 02:01:42;;;;;;;;;;;;;;;20.74;40.87;97093.53;4218777;28;7671;-61
2023/08/08 02:03:45;;;;;;;;;;;;;;;20.73;40.63;97086.53;4218755;28;5723;-61
2023/08/08 02:05:48;;;;;;;;;;;;;;;20.72;40.81;97087.56;4218673;28;5609;-61
2023/08/08 02:07:51;;;;;;;;;;;;;;;20.73;40.73;97105.34;4218720;28;5625;-61
2023/08/08 02:09:53;;;;;;;;;;;;;;;20.73;40.94;97099.16;4217572;28;5712;-61
2023/08/08 02:11:56;;;;;;;;;;;;;;;20.72;40.82;97097.50;4218554;28;5717;-62
2023/08/08 02:14:00;;;;;;;;;;;;;;;20.70;40.85;97089.72;4218388;28;5532;-62
2023/08/08 02:16:03;;;;;;;;;;;;;;;20.72;41.01;97090.25;4218295;28;7818;-62
2023/08/08 02:18:08;;;;;;;;;;;;;;;20.71;40.67;97104.75;4218413;28;5641;-62
2023/08/08 02:20:12;;;;;;;;;;;;;;;20.70;40.96;97099.66;4218375;28;5735;-60
2023/08/08 02:22:15;;;;;;;;;;;;;;;20.69;40.83;97098.84;4218287;28;5616;-60
2023/08/08 02:24:18;;;;;;;;;;;;;;;20.70;40.83;97096.94;4218464;28;5605;-60
2023/08/08 02:26:21;;;;;;;;;;;;;;;20.70;40.94;97099.66;4218499;28;5617;-60
2023/08/08 02:28:24;;;;;;;;;;;;;;;20.68;40.66;97101.78;4217845;28;6068;-61
2023/08/08 02:30:28;;;;;;;;;;;;;;;20.67;40.71;97105.53;4218393;28;5605;-61
2023/08/08 02:32:31;;;;;;;;;;;;;;;20.64;40.82;97106.84;4218537;28;5613;-60
2023/08/08 02:34:34;;;;;;;;;;;;;;;20.61;40.89;97101.94;4218159;28;5731;-61
2023/08/08 02:36:36;;;;;;;;;;;;;;;20.60;40.91;97111.06;4218072;28;6304;-61
2023/08/08 02:38:39;;;;;;;;;;;;;;;20.61;40.84;97107.31;4209901;28;6428;-61
2023/08/08 02:40:42;;;;;;;;;;;;;;;20.62;41.19;97106.28;4217984;28;5676;-61
2023/08/08 02:42:45;;;;;;;;;;;;;;;20.62;40.97;97108.97;4217856;28;5620;-60
2023/08/08 02:44:48;;;;;;;;;;;;;;;20.63;41.20;97107.91;4217956;28;5634;-61
2023/08/08 02:46:52;;;;;;;;;;;;;;;20.63;41.21;97102.53;4218103;28;5625;-60
2023/08/08 02:48:55;;;;;;;;;;;;;;;20.62;41.12;97104.41;4217851;28;5621;-60
2023/08/08 02:50:58;;;;;;;;;;;;;;;20.63;40.96;97105.22;4218070;28;5806;-60
2023/08/08 02:53:01;;;;;;;;;;;;;;;20.64;41.34;97114.91;4217965;28;5625;-61
2023/08/08 02:55:05;;;;;;;;;;;;;;;20.64;41.27;97107.66;4218261;28;5613;-61
2023/08/08 02:57:10;;;;;;;;;;;;;;;20.65;41.21;97105.78;4217951;28;5612;-61
2023/08/08 02:59:13;;;;;;;;;;;;;;;20.65;40.98;97097.72;4217139;28;5655;-61
2023/08/08 03:01:16;;;;;;;;;;;;;;;20.64;41.27;97101.47;4217798;28;5637;-61
2023/08/08 03:03:20;;;;;;;;;;;;;;;20.65;41.35;97105.78;4217796;28;5601;-61
2023/08/08 03:05:24;;;;;;;;;;;;;;;20.65;41.25;97105.78;4217722;28;5820;-61
2023/08/08 03:07:27;;;;;;;;;;;;;;;20.66;41.05;97106.59;4217634;28;5616;-61
2023/08/08 03:09:29;;;;;;;;;;;;;;;20.65;41.18;97108.47;4217349;28;5637;-61
2023/08/08 03:11:32;;;;;;;;;;;;;;;20.66;41.27;97114.66;4217686;28;5677;-61
2023/08/08 03:13:37;;;;;;;;;;;;;;;20.66;41.18;97120.03;4217327;28;5608;-61
2023/08/08 03:15:40;;;;;;;;;;;;;;;20.65;41.17;97119.22;4217588;28;6314;-61
2023/08/08 03:17:43;;;;;;;;;;;;;;;20.65;40.96;97121.91;4217484;28;5238;-61
2023/08/08 03:19:47;;;;;;;;;;;;;;;20.65;41.42;97119.22;4217549;28;5609;-61
2023/08/08 03:21:50;;;;;;;;;;;;;;;20.63;41.18;97108.72;4217700;28;5660;-61
2023/08/08 03:23:53;;;;;;;;;;;;;;;20.63;41.25;97115.97;4217675;28;5613;-61
2023/08/08 03:25:56;;;;;;;;;;;;;;;20.61;41.19;97110.84;4217536;28;5827;-61
2023/08/08 03:27:58;;;;;;;;;;;;;;;20.62;41.11;97117.03;4216218;28;5616;-61
2023/08/08 03:30:01;;;;;;;;;;;;;;;20.60;41.24;97111.06;4217276;28;5708;-62
2023/08/08 03:32:05;;;;;;;;;;;;;;;20.61;41.03;97110.00;4217173;28;5756;-62
2023/08/08 03:34:09;;;;;;;;;;;;;;;20.61;41.17;97115.38;4216476;28;5790;-61
2023/08/08 03:36:13;;;;;;;;;;;;;;;20.59;41.06;97120.19;4216133;28;5613;-62
2023/08/08 03:38:15;;;;;;;;;;;;;;;20.59;41.03;97114.81;4215585;28;5613;-61
2023/08/08 03:40:18;;;;;;;;;;;;;;;20.60;40.91;97111.06;4214232;28;6433;-62
2023/08/08 03:42:21;;;;;;;;;;;;;;;20.60;40.84;97108.38;4215371;28;5731;-62
2023/08/08 03:44:24;;;;;;;;;;;;;;;20.60;40.90;97105.69;4213848;28;5711;-62
2023/08/08 03:46:27;;;;;;;;;;;;;;;20.60;40.86;97105.69;4204708;28;5739;-61
2023/08/08 03:48:30;;;;;;;;;;;;;;;20.60;41.00;97100.31;4211524;28;5772;-61
2023/08/08 03:50:32;;;;;;;;;;;;;;;20.60;40.97;97100.31;4215620;28;6120;-62
2023/08/08 03:52:37;;;;;;;;;;;;;;;20.61;40.91;97105.47;4216074;28;5711;-62
2023/08/08 03:54:40;;;;;;;;;;;;;;;20.61;40.96;97104.63;4210543;28;5742;-62
2023/08/08 03:56:43;;;;;;;;;;;;;;;20.59;41.04;97099.50;4215615;28;5629;-61
2023/08/08 03:58:45;;;;;;;;;;;;;;;20.60;41.20;97111.06;4209416;28;5640;-62
2023/08/08 04:00:48;;;;;;;;;;;;;;;20.61;40.95;97112.69;4208533;28;5612;-62
2023/08/08 04:02:53;;;;;;;;;;;;;;;20.60;40.99;97111.88;4210784;28;5612;-62
2023/08/08 04:04:56;;;;;;;;;;;;;;;20.62;41.04;97109.78;4210997;28;5831;-62
2023/08/08 04:06:59;;;;;;;;;;;;;;;20.63;41.29;97105.22;4211170;28;5696;-61
2023/08/08 04:09:02;;;;;;;;;;;;;;;20.62;41.22;97104.41;4214924;28;5617;-62
2023/08/08 04:11:05;;;;;;;;;;;;;;;20.63;41.17;97110.59;4214322;28;5723;-62
2023/08/08 04:13:28;;;;;;;;;;;;;;;20.63;41.14;97105.22;4213595;28;5796;-62
2023/08/08 04:15:52;;;;;;;;;;;;;;;20.62;41.39;97106.28;4204411;28;5138;-62
2023/08/08 04:18:15;;;;;;;;;;;;;;;20.61;41.37;97105.47;4209254;28;5614;-62
2023/08/08 04:20:18;;;;;;;;;;;;;;;20.62;41.19;97114.34;4212761;28;5076;-62
2023/08/08 04:22:21;;;;;;;;;;;;;;;20.61;41.35;97116.22;4215337;28;5613;-60
2023/08/08 04:24:25;;;;;;;;;;;;;;;20.61;41.63;97112.69;4215291;28;6464;-62
2023/08/08 04:26:28;;;;;;;;;;;;;;;20.62;41.63;97117.03;4216726;28;6322;-62
2023/08/08 04:28:31;;;;;;;;;;;;;;;20.61;41.63;97110.00;4216671;28;5629;-62
2023/08/08 04:30:33;;;;;;;;;;;;;;;20.61;41.51;97112.69;4216740;28;5699;-61
2023/08/08 04:32:36;;;;;;;;;;;;;;;20.61;41.62;97110.84;4216806;28;5621;-62
2023/08/08 04:34:39;;;;;;;;;;;;;;;20.60;41.87;97103.81;4208639;28;5624;-61
2023/08/08 04:36:42;;;;;;;;;;;;;;;20.61;41.67;97108.16;4216905;28;5593;-61
2023/08/08 04:38:45;;;;;;;;;;;;;;;20.62;41.72;97099.03;4216587;28;5704;-61
2023/08/08 04:40:48;;;;;;;;;;;;;;;20.61;41.90;97102.78;4216826;28;5725;-62
2023/08/08 04:42:52;;;;;;;;;;;;;;;20.60;41.72;97101.13;4216275;28;5609;-61
2023/08/08 04:44:55;;;;;;;;;;;;;;;20.62;41.81;97108.97;4216047;28;5613;-62
2023/08/08 04:46:58;;;;;;;;;;;;;;;20.62;41.91;97114.34;4214743;28;5608;-62
2023/08/08 04:49:01;;;;;;;;;;;;;;;20.61;41.82;97110.84;4211237;28;5606;-61
2023/08/08 04:51:05;;;;;;;;;;;;;;;20.62;41.84;97117.03;4216390;28;7284;-61
2023/08/08 04:53:08;;;;;;;;;;;;;;;20.60;41.90;97117.25;4216512;28;5606;-61
2023/08/08 04:55:11;;;;;;;;;;;;;;;20.61;41.79;97118.06;4215009;28;5618;-62
2023/08/08 04:57:15;;;;;;;;;;;;;;;20.61;42.05;97115.38;4216591;28;5613;-62
2023/08/08 04:59:18;;;;;;;;;;;;;;;20.60;41.68;97117.25;4216624;28;5609;-62
2023/08/08 05:01:21;;;;;;;;;;;;;;;20.56;41.93;97115.31;4215099;28;5597;-62
2023/08/08 05:03:23;;;;;;;;;;;;;;;20.58;41.76;97126.63;4217294;28;5779;-62
2023/08/08 05:05:26;;;;;;;;;;;;;;;20.58;41.54;97118.56;4219776;28;5617;-61
2023/08/08 05:07:29;;;;;;;;;;;;;;;20.55;41.44;97119.06;4213808;28;5758;-61
2023/08/08 05:09:32;;;;;;;;;;;;;;;20.57;41.49;97131.19;4216022;28;5597;-61
2023/08/08 05:11:35;;;;;;;;;;;;;;;20.59;41.40;97122.88;4219574;28;5952;-61
2023/08/08 05:13:39;;;;;;;;;;;;;;;20.62;41.38;97127.78;4210913;28;5735;-61
2023/08/08 05:15:42;;;;;;;;;;;;;;;20.62;41.38;97125.09;4216585;28;5975;-61
2023/08/08 05:17:45;;;;;;;;;;;;;;;20.60;41.56;97130.69;4220358;28;5593;-61
2023/08/08 05:19:48;;;;;;;;;;;;;;;20.63;41.61;97140.13;4218711;28;5637;-61
2023/08/08 05:21:51;;;;;;;;;;;;;;;20.62;41.67;97131.25;4219119;28;5605;-61
2023/08/08 05:23:54;;;;;;;;;;;;;;;20.63;41.58;97129.38;4219292;28;5704;-62
2023/08/08 05:25:57;;;;;;;;;;;;;;;20.64;41.79;97125.66;4219337;28;5624;-61
2023/08/08 05:28:00;;;;;;;;;;;;;;;20.64;41.68;97133.69;4214896;28;5623;-61
2023/08/08 05:30:05;;;;;;;;;;;;;;;20.64;41.61;97134.50;4212494;28;5608;-62
2023/08/08 05:32:09;;;;;;;;;;;;;;;20.66;41.60;97128.06;4209793;28;5708;-62
2023/08/08 05:34:12;;;;;;;;;;;;;;;20.65;41.87;97129.94;4211918;28;5621;-61
2023/08/08 05:36:14;;;;;;;;;;;;;;;20.66;41.75;97131.56;4211658;28;5779;-61
2023/08/08 05:38:17;;;;;;;;;;;;;;;20.68;41.69;97136.69;4207951;28;5381;-61
2023/08/08 05:40:20;;;;;;;;;;;;;;;20.67;41.58;97132.38;4215387;28;5783;-61
2023/08/08 05:42:23;;;;;;;;;;;;;;;20.67;41.92;97138.56;4216108;28;5699;-61
2023/08/08 05:44:26;;;;;;;;;;;;;;;20.69;41.88;97143.69;4214538;28;5624;-61
2023/08/08 05:46:30;;;;;;;;;;;;;;;20.70;41.80;97142.63;4215266;28;5620;-61
2023/08/08 05:48:33;;;;;;;;;;;;;;;20.69;41.97;97144.50;4215785;28;5628;-61
2023/08/08 05:50:37;;;;;;;;;;;;;;;20.69;41.63;97136.44;4212959;28;5612;-77
2023/08/08 05:52:40;;;;;;;;;;;;;;;20.69;41.84;97141.81;4213632;28;5600;-63
2023/08/08 05:54:43;;;;;;;;;;;;;;;20.69;41.59;97141.81;4218619;28;5613;-63
2023/08/08 05:56:46;;;;;;;;;;;;;;;20.64;41.67;97145.25;4217777;28;5724;-64
2023/08/08 05:58:49;;;;;;;;;;;;;;;20.62;41.59;97151.94;4214996;28;5683;-63
2023/08/08 06:00:53;;;;;;;;;;;;;;;20.62;41.67;97147.38;4218609;28;6287;-63
2023/08/08 06:02:57;;;;;;;;;;;;;;;20.63;41.65;97150.88;4218571;28;5807;-63
2023/08/08 06:05:00;;;;;;;;;;;;;;;20.63;41.56;97148.19;4212659;28;5723;-64
2023/08/08 06:07:03;;;;;;;;;;;;;;;20.63;41.51;97158.94;4215046;28;7074;-63
2023/08/08 06:09:08;;;;;;;;;;;;;;;20.64;41.28;97152.50;4216692;28;5617;-65
2023/08/08 06:11:11;;;;;;;;;;;;;;;20.66;41.01;97153.06;4211874;28;5767;-65
2023/08/08 06:13:14;;;;;;;;;;;;;;;20.67;40.96;97149.31;4215785;28;5722;-65
2023/08/08 06:15:17;;;;;;;;;;;;;;;20.68;40.99;97153.63;4217936;28;5620;-64
2023/08/08 06:17:20;;;;;;;;;;;;;;;20.69;40.62;97157.94;4208840;28;5624;-65
2023/08/08 06:19:25;;;;;;;;;;;;;;;20.69;40.47;97163.31;4212387;28;5732;-64
2023/08/08 06:21:27;;;;;;;;;;;;;;;20.69;40.49;97155.25;4214893;28;5713;-65
2023/08/08 06:23:30;;;;;;;;;;;;;;;20.69;40.49;97166.00;4217197;28;6237;-64
2023/08/08 06:25:33;;;;;;;;;;;;;;;20.70;40.25;97173.00;4217652;28;5113;-65
2023/08/08 06:27:36;;;;;;;;;;;;;;;20.73;40.27;97166.31;4217610;28;5702;-65
2023/08/08 06:29:40;;;;;;;;;;;;;;;20.73;40.07;97163.63;4217045;28;5624;-65
2023/08/08 06:31:43;;;;;;;;;;;;;;;20.74;39.97;97171.44;4217631;28;5711;-65
2023/08/08 06:33:45;;;;;;;;;;;;;;;20.75;40.07;97170.38;4214345;28;5684;-65
2023/08/08 06:35:50;;;;;;;;;;;;;;;20.77;40.05;97167.44;4217376;28;5628;-65
2023/08/08 06:37:53;;;;;;;;;;;;;;;20.80;39.91;97173.13;4218861;28;5111;-65
2023/08/08 06:39:56;;;;;;;;;;;;;;;20.81;39.73;97174.75;4217048;28;5668;-65
2023/08/08 06:41:59;;;;;;;;;;;;;;;20.82;39.52;97168.31;4217429;28;5729;-65
2023/08/08 06:44:02;;;;;;;;;;;;;;;20.84;39.69;97166.22;4217378;28;5731;-65
2023/08/08 06:46:04;;;;;;;;;;;;;;;20.88;39.69;97161.13;4217598;28;6386;-65
2023/08/08 06:48:08;;;;;;;;;;;;;;;20.91;39.52;97171.38;4215960;28;5597;-65
2023/08/08 06:50:11;;;;;;;;;;;;;;;20.93;39.27;97172.75;4216880;28;5612;-65
2023/08/08 06:52:15;;;;;;;;;;;;;;;20.93;39.42;97167.38;4217632;28;5621;-65
2023/08/08 06:54:18;;;;;;;;;;;;;;;20.94;39.37;97166.31;4218292;28;5601;-65
2023/08/08 06:56:21;;;;;;;;;;;;;;;20.96;39.17;97170.66;4217422;28;5637;-65
2023/08/08 06:58:24;;;;;;;;;;;;;;;20.98;39.06;97163.16;4216907;28;5720;-65
2023/08/08 07:00:28;;;;;;;;;;;;;;;21.00;39.21;97155.63;4216236;28;5744;-65
2023/08/08 07:02:30;;;;;;;;;;;;;;;21.02;38.95;97166.94;4221485;28;6931;-65
2023/08/08 07:04:33;;;;;;;;;;;;;;;21.01;39.06;97157.25;4217890;28;5629;-65
2023/08/08 07:06:36;;;;;;;;;;;;;;;21.01;38.97;97163.44;4217224;28;5621;-66
2023/08/08 07:08:41;;;;;;;;;;;;;;;21.04;38.90;97160.25;4208584;28;5719;-66
2023/08/08 07:10:43;;;;;;;;;;;;;;;21.05;38.87;97155.69;4216837;28;5617;-66
2023/08/08 07:12:47;;;;;;;;;;;;;;;21.06;38.85;97158.13;4217322;28;5672;-65
2023/08/08 07:14:50;;;;;;;;;;;;;;;21.07;39.09;97156.28;4217600;28;6366;-66
2023/08/08 07:16:53;;;;;;;;;;;;;;;21.07;38.99;97154.41;4210770;28;5790;-65
2023/08/08 07:18:56;;;;;;;;;;;;;;;21.09;38.91;97156.81;4220378;28;5093;-66
2023/08/08 07:20:59;;;;;;;;;;;;;;;21.09;38.92;97146.88;4216232;28;5703;-64
2023/08/08 07:23:02;;;;;;;;;;;;;;;21.09;38.92;97156.81;4215254;28;5712;-65
2023/08/08 07:25:07;;;;;;;;;;;;;;;21.11;38.86;97160.06;4215126;28;5723;-65
2023/08/08 07:27:10;;;;;;;;;;;;;;;21.13;38.65;97147.19;4194984;28;5724;-64
2023/08/08 07:29:12;;;;;;;;;;;;;;;21.14;38.46;97146.94;4213474;28;5620;-65
2023/08/08 07:31:15;;;;;;;;;;;;;;;21.16;38.42;97150.19;4213693;28;5732;-65
2023/08/08 07:33:18;;;;;;;;;;;;;;;21.18;38.35;97155.31;4215806;28;5684;-64
2023/08/08 07:35:21;;;;;;;;;;;;;;;21.17;38.22;97153.69;4218062;28;5616;-64
2023/08/08 07:37:24;;;;;;;;;;;;;;;21.19;38.26;97157.75;4217070;28;5715;-64
2023/08/08 07:39:27;;;;;;;;;;;;;;;21.21;38.17;97158.31;4216765;28;5610;-65
2023/08/08 07:41:32;;;;;;;;;;;;;;;21.22;38.47;97156.44;4216926;28;5788;-65
2023/08/08 07:43:35;;;;;;;;;;;;;;;21.22;38.30;97157.25;4217042;28;5625;-65
2023/08/08 07:45:38;;;;;;;;;;;;;;;21.27;38.47;97161.06;4216347;28;5713;-64
2023/08/08 07:47:41;;;;;;;;;;;;;;;21.27;38.29;97158.38;4221051;28;5662;-65
2023/08/08 07:49:44;;;;;;;;;;;;;;;21.29;38.23;97167.00;4216329;28;5648;-64
2023/08/08 07:51:47;;;;;;;;;;;;;;;21.30;38.23;97155.22;4216812;28;5601;-65
2023/08/08 07:53:51;;;;;;;;;;;;;;;21.32;38.30;97153.09;4216315;28;5695;-65
2023/08/08 07:55:53;;;;;;;;;;;;;;;21.36;38.11;97155.00;4216012;28;5617;-65
2023/08/08 07:57:58;;;;;;;;;;;;;;;21.38;38.40;97157.44;4216609;28;5819;-65
2023/08/08 08:00:06;;;;;;;;;;;;;;;21.40;38.54;97153.41;4216519;28;5703;-64
2023/08/08 08:02:10;;;;;;;;;;;;;;;21.41;38.67;97143.50;4215038;28;5664;-65
2023/08/08 08:04:13;;;;;;;;;;;;;;;21.42;38.74;97145.94;4213438;28;5680;-65
2023/08/08 08:06:16;;;;;;;;;;;;;;;21.43;38.75;97128.72;4219778;28;5612;-64
2023/08/08 08:08:21;;;;;;;;;;;;;;;21.45;38.85;97129.28;4216364;28;5861;-65
2023/08/08 08:10:24;;;;;;;;;;;;;;;21.46;39.10;97138.97;4216818;28;5779;-65
2023/08/08 08:12:27;;;;;;;;;;;;;;;21.47;39.33;97143.28;4216422;28;5597;-65
2023/08/08 08:14:31;;;;;;;;;;;;;;;21.48;39.10;97154.84;4216069;28;5633;-65
2023/08/08 08:16:34;;;;;;;;;;;;;;;21.50;39.32;97153.53;4213214;28;5068;-66
2023/08/08 08:18:37;;;;;;;;;;;;;;;21.53;39.46;97148.72;4208294;28;5594;-65
2023/08/08 08:20:40;;;;;;;;;;;;;;;21.51;39.40;97155.16;4216208;28;5693;-66
2023/08/08 08:22:43;;;;;;;;;;;;;;;21.54;39.54;97161.91;4216619;28;5605;-66
2023/08/08 08:24:46;;;;;;;;;;;;;;;21.54;39.57;97159.22;4215774;28;5736;-65
2023/08/08 08:26:49;;;;;;;;;;;;;;;21.55;39.72;97160.03;4216747;28;5613;-66
2023/08/08 08:28:52;;;;;;;;;;;;;;;21.55;39.48;97149.28;4198153;28;5751;-66
2023/08/08 08:30:56;;;;;;;;;;;;;;;21.57;39.62;97157.91;4214940;28;5748;-67
2023/08/08 08:33:00;;;;;;;;;;;;;;;21.58;39.99;97154.16;4222915;28;5629;-66
2023/08/08 08:35:06;;;;;;;;;;;;;;;21.60;39.95;97157.38;4221025;28;5733;-68
2023/08/08 08:37:09;;;;;;;;;;;;;;;21.58;40.13;97154.97;4219704;28;5806;-66
2023/08/08 08:39:12;;;;;;;;;;;;;;;21.56;40.02;97143.66;4222495;28;5598;-66
2023/08/08 08:41:19;;;;;;;;;;;;;;;21.61;39.92;97145.56;4222736;28;5787;-66
2023/08/08 08:43:22;;;;;;;;;;;;;;;21.62;40.27;97149.88;4219638;28;5637;-66
2023/08/08 08:45:26;;;;;;;;;;;;;;;21.61;40.08;97141.00;4218581;28;5111;-67
2023/08/08 08:47:32;;;;;;;;;;;;;;;21.57;40.18;97141.75;4217651;28;5608;-65
2023/08/08 08:49:37;;;;;;;;;;;;;;;21.55;40.28;97136.63;4201409;28;5710;-65
2023/08/08 08:51:40;;;;;;;;;;;;;;;21.56;40.49;97138.25;4211597;28;5741;-66
2023/08/08 08:53:46;;;;;;;;;;;;;;;21.59;40.26;97134.25;4219538;28;5633;-65
2023/08/08 08:55:49;;;;;;;;;;;;;;;21.60;40.29;97131.28;4201244;28;5718;-65
2023/08/08 08:57:54;;;;;;;;;;;;;;;21.62;40.42;97122.97;4219527;28;5688;-66
2023/08/08 08:59:57;;;;;;;;;;;;;;;21.62;40.35;97136.41;4218260;28;5815;-66
2023/08/08 09:02:00;;;;;;;;;;;;;;;21.61;40.43;97142.88;4223405;28;5700;-65
2023/08/08 09:04:08;;;;;;;;;;;;;;;21.60;40.52;97143.94;4214165;28;5949;-66
2023/08/08 09:06:12;;;;;;;;;;;;;;;21.61;40.47;97150.94;4213157;28;5711;-66
2023/08/08 09:08:17;;;;;;;;;;;;;;;21.57;40.54;97147.94;4218086;28;5629;-66
2023/08/08 09:10:21;;;;;;;;;;;;;;;21.56;40.64;97151.72;4217667;28;5793;-66
2023/08/08 09:12:25;;;;;;;;;;;;;;;21.58;40.53;97148.75;4217179;28;5708;-66
2023/08/08 09:14:28;;;;;;;;;;;;;;;21.60;40.74;97146.63;4215983;28;5617;-66
2023/08/08 09:16:31;;;;;;;;;;;;;;;21.63;40.55;97146.09;4221109;28;5621;-66
2023/08/08 09:18:34;;;;;;;;;;;;;;;21.64;40.33;97142.38;4218356;28;5703;-66
2023/08/08 09:20:38;;;;;;;;;;;;;;;21.65;40.48;97142.13;4217598;28;5736;-66
2023/08/08 09:22:41;;;;;;;;;;;;;;;21.64;40.50;97137.81;4209651;28;5620;-66
2023/08/08 09:24:43;;;;;;;;;;;;;;;21.62;40.68;97139.09;4209149;28;5732;-66
2023/08/08 09:26:46;;;;;;;;;;;;;;;21.61;40.56;97134.78;4217475;28;5700;-65
2023/08/08 09:28:49;;;;;;;;;;;;;;;21.64;40.53;97137.81;4217365;28;5815;-64
2023/08/08 09:30:53;;;;;;;;;;;;;;;21.66;40.53;97140.25;4216242;28;5724;-65
2023/08/08 09:32:59;;;;;;;;;;;;;;;21.68;40.64;97138.09;4215338;28;6272;-66
2023/08/08 09:35:02;;;;;;;;;;;;;;;21.68;40.43;97132.72;4217652;28;5632;-64
2023/08/08 09:37:06;;;;;;;;;;;;;;;21.70;40.50;97133.28;4217091;28;5727;-65
2023/08/08 09:39:09;;;;;;;;;;;;;;;21.71;40.71;97137.59;4217142;28;5696;-65
2023/08/08 09:41:14;;;;;;;;;;;;;;;21.72;40.74;97139.19;4217455;28;5708;-66
2023/08/08 09:43:17;;;;;;;;;;;;;;;21.73;40.62;97146.19;4216919;28;5695;-65
2023/08/08 09:45:22;;;;;;;;;;;;;;;21.71;40.68;97146.47;4216753;28;7048;-67
2023/08/08 09:47:25;;;;;;;;;;;;;;;21.71;40.52;97143.78;4214564;28;5696;-66
2023/08/08 09:49:28;;;;;;;;;;;;;;;21.72;40.67;97142.69;4209038;28;5700;-66
2023/08/08 09:51:31;;;;;;;;;;;;;;;21.71;40.61;97134.88;4217276;28;5751;-65
2023/08/08 09:53:35;;;;;;;;;;;;;;;21.68;40.44;97138.09;4210030;28;5653;-65
2023/08/08 09:55:39;;;;;;;;;;;;;;;21.68;40.56;97141.59;4216172;28;6335;-66
2023/08/08 09:57:43;;;;;;;;;;;;;;;21.65;40.66;97128.66;4216768;28;5620;-66
2023/08/08 09:59:49;;;;;;;;;;;;;;;21.67;40.67;97128.41;4216705;28;5699;-66
2023/08/08 10:01:53;;;;;;;;;;;;;;;21.67;40.63;97125.72;4223029;28;5638;-66
2023/08/08 10:03:57;;;;;;;;;;;;;;;21.66;40.60;97129.47;4222794;28;5605;-65
2023/08/08 10:06:02;;;;;;;;;;;;;;;21.65;40.97;97123.28;4216763;28;5750;-65
2023/08/08 10:08:06;;;;;;;;;;;;;;;21.66;40.74;97132.97;4216936;28;5707;-66
2023/08/08 10:10:11;;;;;;;;;;;;;;;21.68;40.64;97140.78;4216640;28;5629;-65
2023/08/08 10:12:14;;;;;;;;;;;;;;;21.71;40.63;97133.00;4217015;28;5328;-66
2023/08/08 10:14:17;;;;;;;;;;;;;;;21.72;40.74;97131.13;4211217;28;5796;-66
2023/08/08 10:16:22;;;;;;;;;;;;;;;21.71;40.79;97133.00;4215977;28;5613;-66
2023/08/08 10:18:25;;;;;;;;;;;;;;;21.77;40.81;97129.31;4224479;28;5719;-65
2023/08/08 10:20:28;;;;;;;;;;;;;;;21.79;41.02;97129.06;4216669;28;5711;-66
2023/08/08 10:22:32;;;;;;;;;;;;;;;21.80;40.82;97130.66;4217478;28;5711;-66
2023/08/08 10:24:36;;;;;;;;;;;;;;;21.81;41.08;97129.59;4216904;28;5722;-66
2023/08/08 10:26:54;;;;;;;;;;;;;;;21.83;41.11;97126.66;4216417;28;5628;-65
2023/08/08 10:28:58;;;;;;;;;;;;;;;21.84;41.14;97126.38;4217325;28;5712;-65
2023/08/08 10:31:04;;;;;;;;;;;;;;;21.85;40.78;97128.00;4222293;28;6374;-65
2023/08/08 10:33:07;;;;;;;;;;;;;;;21.86;40.85;97132.34;4217202;28;5649;-65
2023/08/08 10:35:11;;;;;;;;;;;;;;;21.87;41.13;97130.47;4210116;28;5890;-64
2023/08/08 10:37:17;;;;;;;;;;;;;;;21.89;40.88;97134.53;4212468;28;5716;-65
2023/08/08 10:39:20;;;;;;;;;;;;;;;21.91;41.11;97129.69;4216071;28;5707;-65
2023/08/08 10:41:27;;;;;;;;;;;;;;;21.92;41.27;97128.63;4217358;28;5624;-66
2023/08/08 10:43:30;;;;;;;;;;;;;;;21.94;41.02;97122.97;4220654;28;5727;-65
2023/08/08 10:45:37;;;;;;;;;;;;;;;21.95;40.93;97117.31;4219625;28;5598;-67
2023/08/08 10:47:40;;;;;;;;;;;;;;;21.96;40.86;97116.25;4213105;28;5632;-72
2023/08/08 10:49:44;;;;;;;;;;;;;;;21.97;41.12;97115.22;4215901;28;5680;-70
2023/08/08 10:51:48;;;;;;;;;;;;;;;22.00;40.88;97120.06;4198397;28;5723;-72
2023/08/08 10:53:52;;;;;;;;;;;;;;;22.02;40.97;97117.94;4216035;28;5873;-72